sensor_id;sensor_type;location;lat;lon;timestamp;P1;durP1;ratioP1;P2;durP2;ratioP2
9465;SDS011;4771;48.726;9.006;2023-02-03T00:01:57;1.20;;;1.10;;
9465;SDS011;4771;48.726;9.006;2023-02-03T00:04:24;3.10;;;1.27;;
9465;SDS011;4771;48.726;9.006;2023-02-03T00:06:51;2.07;;;1.17;;
9465;SDS011;4771;48.726;9.006;2023-02-03T00:09:18;1.53;;;1.00;;
9465;SDS011;4771;48.726;9.006;2023-02-03T00:11:47;2.50;;;1.00;;
9465;SDS011;4771;48.726;9.006;2023-02-03T00:14:14;1.10;;;1.00;;
9465;SDS011;4771;48.726;9.006;2023-02-03T00:16:41;1.10;;;1.00;;
9465;SDS011;4771;48.726;9.006;2023-02-03T00:19:08;1.10;;;1.00;;
9465;SDS011;4771;48.726;9.006;2023-02-03T00:21:35;1.33;;;1.00;;
9465;SDS011;4771;48.726;9.006;2023-02-03T00:24:01;1.30;;;0.97;;
9465;SDS011;4771;48.726;9.006;2023-02-03T00:26:28;1.07;;;1.03;;
9465;SDS011;4771;48.726;9.006;2023-02-03T00:28:57;0.90;;;0.90;;
9465;SDS011;4771;48.726;9.006;2023-02-03T00:31:25;1.13;;;1.00;;
9465;SDS011;4771;48.726;9.006;2023-02-03T00:33:52;1.00;;;1.00;;
9465;SDS011;4771;48.726;9.006;2023-02-03T00:36:20;2.13;;;0.90;;
9465;SDS011;4771;48.726;9.006;2023-02-03T00:38:47;2.43;;;1.13;;
9465;SDS011;4771;48.726;9.006;2023-02-03T00:41:14;0.90;;;0.90;;
9465;SDS011;4771;48.726;9.006;2023-02-03T00:43:41;1.10;;;0.90;;
9465;SDS011;4771;48.726;9.006;2023-02-03T00:46:09;0.77;;;0.77;;
9465;SDS011;4771;48.726;9.006;2023-02-03T00:48:36;0.80;;;0.80;;
9465;SDS011;4771;48.726;9.006;2023-02-03T00:51:03;0.90;;;0.90;;
9465;SDS011;4771;48.726;9.006;2023-02-03T00:53:30;0.87;;;0.80;;
9465;SDS011;4771;48.726;9.006;2023-02-03T00:55:56;0.80;;;0.80;;
9465;SDS011;4771;48.726;9.006;2023-02-03T00:58:23;1.20;;;0.83;;
9465;SDS011;4771;48.726;9.006;2023-02-03T01:00:50;1.43;;;1.10;;
9465;SDS011;4771;48.726;9.006;2023-02-03T01:03:20;1.00;;;0.90;;
9465;SDS011;4771;48.726;9.006;2023-02-03T01:05:47;1.63;;;0.80;;
9465;SDS011;4771;48.726;9.006;2023-02-03T01:08:14;1.10;;;0.93;;
9465;SDS011;4771;48.726;9.006;2023-02-03T01:10:40;0.97;;;0.90;;
9465;SDS011;4771;48.726;9.006;2023-02-03T01:13:08;1.13;;;0.93;;
9465;SDS011;4771;48.726;9.006;2023-02-03T01:15:35;1.20;;;1.10;;
9465;SDS011;4771;48.726;9.006;2023-02-03T01:18:02;1.43;;;1.00;;
9465;SDS011;4771;48.726;9.006;2023-02-03T01:20:31;1.30;;;1.00;;
9465;SDS011;4771;48.726;9.006;2023-02-03T01:22:57;1.07;;;0.90;;
9465;SDS011;4771;48.726;9.006;2023-02-03T01:25:24;1.27;;;1.00;;
9465;SDS011;4771;48.726;9.006;2023-02-03T01:27:51;0.80;;;0.80;;
9465;SDS011;4771;48.726;9.006;2023-02-03T01:30:18;1.43;;;1.00;;
9465;SDS011;4771;48.726;9.006;2023-02-03T01:32:45;1.93;;;1.20;;
9465;SDS011;4771;48.726;9.006;2023-02-03T01:35:12;1.80;;;1.13;;
9465;SDS011;4771;48.726;9.006;2023-02-03T01:37:40;1.67;;;1.17;;
9465;SDS011;4771;48.726;9.006;2023-02-03T01:40:07;2.50;;;1.50;;
9465;SDS011;4771;48.726;9.006;2023-02-03T01:42:35;1.43;;;1.30;;
9465;SDS011;4771;48.726;9.006;2023-02-03T01:45:02;1.20;;;1.10;;
9465;SDS011;4771;48.726;9.006;2023-02-03T01:47:30;2.53;;;1.23;;
9465;SDS011;4771;48.726;9.006;2023-02-03T01:50:05;2.10;;;1.30;;
9465;SDS011;4771;48.726;9.006;2023-02-03T01:52:37;1.87;;;1.20;;
9465;SDS011;4771;48.726;9.006;2023-02-03T01:55:09;2.60;;;1.30;;
9465;SDS011;4771;48.726;9.006;2023-02-03T01:57:40;1.43;;;1.33;;
9465;SDS011;4771;48.726;9.006;2023-02-03T02:00:10;3.20;;;1.50;;
9465;SDS011;4771;48.726;9.006;2023-02-03T02:02:37;2.50;;;1.50;;
9465;SDS011;4771;48.726;9.006;2023-02-03T02:05:06;3.77;;;1.70;;
9465;SDS011;4771;48.726;9.006;2023-02-03T02:07:38;5.33;;;1.60;;
9465;SDS011;4771;48.726;9.006;2023-02-03T02:10:09;3.03;;;1.50;;
9465;SDS011;4771;48.726;9.006;2023-02-03T02:12:36;3.10;;;1.63;;
9465;SDS011;4771;48.726;9.006;2023-02-03T02:15:03;1.90;;;1.47;;
9465;SDS011;4771;48.726;9.006;2023-02-03T02:17:50;1.93;;;1.50;;
9465;SDS011;4771;48.726;9.006;2023-02-03T02:23:53;2.70;;;1.83;;
9465;SDS011;4771;48.726;9.006;2023-02-03T02:26:48;4.37;;;1.63;;
9465;SDS011;4771;48.726;9.006;2023-02-03T02:32:22;2.00;;;1.40;;
9465;SDS011;4771;48.726;9.006;2023-02-03T02:34:57;1.53;;;1.40;;
9465;SDS011;4771;48.726;9.006;2023-02-03T02:37:33;4.33;;;1.70;;
9465;SDS011;4771;48.726;9.006;2023-02-03T02:40:07;1.70;;;1.47;;
9465;SDS011;4771;48.726;9.006;2023-02-03T02:42:42;4.50;;;2.10;;
9465;SDS011;4771;48.726;9.006;2023-02-03T02:45:19;2.40;;;1.70;;
9465;SDS011;4771;48.726;9.006;2023-02-03T02:47:51;3.83;;;1.70;;
9465;SDS011;4771;48.726;9.006;2023-02-03T02:50:22;3.50;;;1.50;;
9465;SDS011;4771;48.726;9.006;2023-02-03T02:52:53;2.87;;;1.30;;
9465;SDS011;4771;48.726;9.006;2023-02-03T02:55:23;4.63;;;1.50;;
9465;SDS011;4771;48.726;9.006;2023-02-03T02:57:56;1.77;;;1.37;;
9465;SDS011;4771;48.726;9.006;2023-02-03T03:00:28;2.83;;;1.47;;
9465;SDS011;4771;48.726;9.006;2023-02-03T03:03:02;1.73;;;1.20;;
9465;SDS011;4771;48.726;9.006;2023-02-03T03:05:37;2.60;;;1.50;;
9465;SDS011;4771;48.726;9.006;2023-02-03T03:08:05;2.20;;;1.20;;
9465;SDS011;4771;48.726;9.006;2023-02-03T03:10:34;3.57;;;1.20;;
9465;SDS011;4771;48.726;9.006;2023-02-03T03:13:03;2.37;;;1.20;;
9465;SDS011;4771;48.726;9.006;2023-02-03T03:15:32;1.63;;;1.20;;
9465;SDS011;4771;48.726;9.006;2023-02-03T03:18:03;2.27;;;1.30;;
9465;SDS011;4771;48.726;9.006;2023-02-03T03:20:34;1.47;;;1.10;;
9465;SDS011;4771;48.726;9.006;2023-02-03T03:23:08;1.40;;;1.10;;
9465;SDS011;4771;48.726;9.006;2023-02-03T03:25:53;2.30;;;1.20;;
9465;SDS011;4771;48.726;9.006;2023-02-03T03:28:27;1.73;;;1.10;;
9465;SDS011;4771;48.726;9.006;2023-02-03T03:31:00;1.10;;;1.00;;
9465;SDS011;4771;48.726;9.006;2023-02-03T03:33:29;1.13;;;1.10;;
9465;SDS011;4771;48.726;9.006;2023-02-03T03:35:59;2.83;;;1.23;;
9465;SDS011;4771;48.726;9.006;2023-02-03T03:38:31;1.03;;;0.93;;
9465;SDS011;4771;48.726;9.006;2023-02-03T03:41:04;1.20;;;1.10;;
9465;SDS011;4771;48.726;9.006;2023-02-03T03:43:36;1.57;;;1.00;;
9465;SDS011;4771;48.726;9.006;2023-02-03T03:46:08;1.17;;;1.03;;
9465;SDS011;4771;48.726;9.006;2023-02-03T03:48:40;1.00;;;0.90;;
9465;SDS011;4771;48.726;9.006;2023-02-03T03:51:15;1.30;;;1.10;;
9465;SDS011;4771;48.726;9.006;2023-02-03T03:53:46;0.90;;;0.90;;
9465;SDS011;4771;48.726;9.006;2023-02-03T03:56:18;0.90;;;0.90;;
9465;SDS011;4771;48.726;9.006;2023-02-03T03:58:49;2.33;;;1.00;;
9465;SDS011;4771;48.726;9.006;2023-02-03T04:01:19;1.10;;;1.00;;
9465;SDS011;4771;48.726;9.006;2023-02-03T04:03:51;0.90;;;0.90;;
9465;SDS011;4771;48.726;9.006;2023-02-03T04:06:22;1.03;;;1.00;;
9465;SDS011;4771;48.726;9.006;2023-02-03T04:08:49;0.90;;;0.90;;
9465;SDS011;4771;48.726;9.006;2023-02-03T04:11:16;0.90;;;0.80;;
9465;SDS011;4771;48.726;9.006;2023-02-03T04:13:57;1.00;;;0.90;;
9465;SDS011;4771;48.726;9.006;2023-02-03T04:16:24;1.13;;;1.03;;
9465;SDS011;4771;48.726;9.006;2023-02-03T04:18:52;0.83;;;0.83;;
9465;SDS011;4771;48.726;9.006;2023-02-03T04:21:19;0.90;;;0.80;;
9465;SDS011;4771;48.726;9.006;2023-02-03T04:23:46;1.10;;;1.00;;
9465;SDS011;4771;48.726;9.006;2023-02-03T04:26:12;1.53;;;0.90;;
9465;SDS011;4771;48.726;9.006;2023-02-03T04:28:39;0.80;;;0.80;;
9465;SDS011;4771;48.726;9.006;2023-02-03T04:31:06;0.80;;;0.80;;
9465;SDS011;4771;48.726;9.006;2023-02-03T04:33:33;0.80;;;0.80;;
9465;SDS011;4771;48.726;9.006;2023-02-03T04:36:01;0.80;;;0.80;;
9465;SDS011;4771;48.726;9.006;2023-02-03T04:38:28;0.93;;;0.80;;
9465;SDS011;4771;48.726;9.006;2023-02-03T04:40:55;2.37;;;0.80;;
9465;SDS011;4771;48.726;9.006;2023-02-03T04:43:22;1.10;;;0.80;;
9465;SDS011;4771;48.726;9.006;2023-02-03T04:45:48;0.60;;;0.60;;
9465;SDS011;4771;48.726;9.006;2023-02-03T04:48:15;0.80;;;0.80;;
9465;SDS011;4771;48.726;9.006;2023-02-03T04:50:42;1.10;;;0.90;;
9465;SDS011;4771;48.726;9.006;2023-02-03T04:53:10;1.00;;;0.90;;
9465;SDS011;4771;48.726;9.006;2023-02-03T04:55:37;0.80;;;0.80;;
9465;SDS011;4771;48.726;9.006;2023-02-03T04:58:04;1.00;;;0.80;;
9465;SDS011;4771;48.726;9.006;2023-02-03T05:00:31;0.80;;;0.80;;
9465;SDS011;4771;48.726;9.006;2023-02-03T05:02:57;1.33;;;1.07;;
9465;SDS011;4771;48.726;9.006;2023-02-03T05:05:24;2.27;;;0.93;;
9465;SDS011;4771;48.726;9.006;2023-02-03T05:07:51;2.53;;;1.40;;
9465;SDS011;4771;48.726;9.006;2023-02-03T05:10:19;1.90;;;1.17;;
9465;SDS011;4771;48.726;9.006;2023-02-03T05:12:46;1.13;;;1.03;;
9465;SDS011;4771;48.726;9.006;2023-02-03T05:15:13;2.27;;;1.10;;
9465;SDS011;4771;48.726;9.006;2023-02-03T05:17:40;1.17;;;1.07;;
9465;SDS011;4771;48.726;9.006;2023-02-03T05:20:07;1.47;;;1.20;;
9465;SDS011;4771;48.726;9.006;2023-02-03T05:22:35;1.30;;;1.20;;
9465;SDS011;4771;48.726;9.006;2023-02-03T05:25:02;1.27;;;0.90;;
9465;SDS011;4771;48.726;9.006;2023-02-03T05:27:31;1.67;;;1.00;;
9465;SDS011;4771;48.726;9.006;2023-02-03T05:29:57;1.00;;;1.00;;
9465;SDS011;4771;48.726;9.006;2023-02-03T05:32:24;1.00;;;1.00;;
9465;SDS011;4771;48.726;9.006;2023-02-03T05:34:51;2.07;;;1.13;;
9465;SDS011;4771;48.726;9.006;2023-02-03T05:37:18;1.53;;;1.03;;
9465;SDS011;4771;48.726;9.006;2023-02-03T05:39:44;2.67;;;1.10;;
9465;SDS011;4771;48.726;9.006;2023-02-03T05:42:11;1.27;;;1.00;;
9465;SDS011;4771;48.726;9.006;2023-02-03T05:44:38;4.17;;;1.43;;
9465;SDS011;4771;48.726;9.006;2023-02-03T05:47:05;2.03;;;1.10;;
9465;SDS011;4771;48.726;9.006;2023-02-03T05:49:32;1.57;;;1.00;;
9465;SDS011;4771;48.726;9.006;2023-02-03T05:51:59;1.03;;;0.93;;
9465;SDS011;4771;48.726;9.006;2023-02-03T05:54:26;1.97;;;1.13;;
9465;SDS011;4771;48.726;9.006;2023-02-03T05:56:53;1.37;;;1.03;;
9465;SDS011;4771;48.726;9.006;2023-02-03T05:59:19;1.77;;;1.10;;
9465;SDS011;4771;48.726;9.006;2023-02-03T06:01:48;1.97;;;1.07;;
9465;SDS011;4771;48.726;9.006;2023-02-03T06:04:14;2.20;;;1.00;;
9465;SDS011;4771;48.726;9.006;2023-02-03T06:06:41;1.87;;;1.00;;
9465;SDS011;4771;48.726;9.006;2023-02-03T06:09:08;3.07;;;1.13;;
9465;SDS011;4771;48.726;9.006;2023-02-03T06:11:35;1.33;;;1.10;;
9465;SDS011;4771;48.726;9.006;2023-02-03T06:14:02;4.23;;;1.10;;
9465;SDS011;4771;48.726;9.006;2023-02-03T06:16:29;1.57;;;1.03;;
9465;SDS011;4771;48.726;9.006;2023-02-03T06:18:58;1.63;;;1.10;;
9465;SDS011;4771;48.726;9.006;2023-02-03T06:21:26;0.97;;;0.90;;
9465;SDS011;4771;48.726;9.006;2023-02-03T06:23:53;1.20;;;0.90;;
9465;SDS011;4771;48.726;9.006;2023-02-03T06:26:20;3.10;;;1.10;;
9465;SDS011;4771;48.726;9.006;2023-02-03T06:28:47;0.80;;;0.80;;
9465;SDS011;4771;48.726;9.006;2023-02-03T06:31:14;1.30;;;1.20;;
9465;SDS011;4771;48.726;9.006;2023-02-03T06:33:41;1.70;;;1.30;;
9465;SDS011;4771;48.726;9.006;2023-02-03T06:36:09;1.23;;;1.00;;
9465;SDS011;4771;48.726;9.006;2023-02-03T06:38:36;4.50;;;1.40;;
9465;SDS011;4771;48.726;9.006;2023-02-03T06:41:03;3.53;;;1.30;;
9465;SDS011;4771;48.726;9.006;2023-02-03T06:43:30;1.37;;;1.20;;
9465;SDS011;4771;48.726;9.006;2023-02-03T06:45:59;1.73;;;0.90;;
9465;SDS011;4771;48.726;9.006;2023-02-03T06:48:42;1.40;;;1.27;;
9465;SDS011;4771;48.726;9.006;2023-02-03T06:51:10;1.77;;;1.10;;
9465;SDS011;4771;48.726;9.006;2023-02-03T06:53:37;1.30;;;1.20;;
9465;SDS011;4771;48.726;9.006;2023-02-03T06:56:04;2.23;;;1.30;;
9465;SDS011;4771;48.726;9.006;2023-02-03T06:58:31;3.23;;;1.47;;
9465;SDS011;4771;48.726;9.006;2023-02-03T07:00:58;4.00;;;1.60;;
9465;SDS011;4771;48.726;9.006;2023-02-03T07:03:25;2.87;;;1.40;;
9465;SDS011;4771;48.726;9.006;2023-02-03T07:05:52;1.97;;;1.30;;
9465;SDS011;4771;48.726;9.006;2023-02-03T07:08:20;3.57;;;1.47;;
9465;SDS011;4771;48.726;9.006;2023-02-03T07:10:52;2.43;;;1.40;;
9465;SDS011;4771;48.726;9.006;2023-02-03T07:13:19;2.17;;;1.70;;
9465;SDS011;4771;48.726;9.006;2023-02-03T07:15:45;2.30;;;1.50;;
9465;SDS011;4771;48.726;9.006;2023-02-03T07:18:12;2.93;;;1.60;;
9465;SDS011;4771;48.726;9.006;2023-02-03T07:20:40;1.70;;;1.60;;
9465;SDS011;4771;48.726;9.006;2023-02-03T07:23:07;2.50;;;1.70;;
9465;SDS011;4771;48.726;9.006;2023-02-03T07:25:35;2.60;;;1.93;;
9465;SDS011;4771;48.726;9.006;2023-02-03T07:28:02;4.53;;;1.83;;
9465;SDS011;4771;48.726;9.006;2023-02-03T07:30:29;2.87;;;1.73;;
9465;SDS011;4771;48.726;9.006;2023-02-03T07:32:55;2.17;;;1.50;;
9465;SDS011;4771;48.726;9.006;2023-02-03T07:35:22;1.97;;;1.53;;
9465;SDS011;4771;48.726;9.006;2023-02-03T07:37:49;3.40;;;1.70;;
9465;SDS011;4771;48.726;9.006;2023-02-03T07:40:16;3.33;;;1.73;;
9465;SDS011;4771;48.726;9.006;2023-02-03T07:42:45;3.87;;;1.40;;
9465;SDS011;4771;48.726;9.006;2023-02-03T07:45:14;4.50;;;1.90;;
9465;SDS011;4771;48.726;9.006;2023-02-03T07:47:42;1.97;;;1.47;;
9465;SDS011;4771;48.726;9.006;2023-02-03T07:50:10;2.80;;;1.50;;
9465;SDS011;4771;48.726;9.006;2023-02-03T07:52:37;1.77;;;1.47;;
9465;SDS011;4771;48.726;9.006;2023-02-03T07:55:05;2.33;;;1.87;;
9465;SDS011;4771;48.726;9.006;2023-02-03T07:57:32;2.70;;;1.70;;
9465;SDS011;4771;48.726;9.006;2023-02-03T08:00:01;3.03;;;1.70;;
9465;SDS011;4771;48.726;9.006;2023-02-03T08:02:28;2.77;;;2.00;;
9465;SDS011;4771;48.726;9.006;2023-02-03T08:04:55;2.67;;;1.83;;
9465;SDS011;4771;48.726;9.006;2023-02-03T08:07:22;2.67;;;1.70;;
9465;SDS011;4771;48.726;9.006;2023-02-03T08:09:49;4.03;;;1.67;;
9465;SDS011;4771;48.726;9.006;2023-02-03T08:12:16;4.27;;;1.80;;
9465;SDS011;4771;48.726;9.006;2023-02-03T08:14:43;2.40;;;1.93;;
9465;SDS011;4771;48.726;9.006;2023-02-03T08:17:11;3.17;;;1.90;;
9465;SDS011;4771;48.726;9.006;2023-02-03T08:19:38;4.23;;;1.90;;
9465;SDS011;4771;48.726;9.006;2023-02-03T08:22:05;4.23;;;2.20;;
9465;SDS011;4771;48.726;9.006;2023-02-03T08:24:32;3.13;;;1.90;;
9465;SDS011;4771;48.726;9.006;2023-02-03T08:26:59;4.93;;;2.23;;
9465;SDS011;4771;48.726;9.006;2023-02-03T08:29:26;5.03;;;2.27;;
9465;SDS011;4771;48.726;9.006;2023-02-03T08:31:53;3.27;;;2.00;;
9465;SDS011;4771;48.726;9.006;2023-02-03T08:34:22;4.70;;;2.17;;
9465;SDS011;4771;48.726;9.006;2023-02-03T08:36:49;2.87;;;1.97;;
9465;SDS011;4771;48.726;9.006;2023-02-03T08:39:16;3.70;;;2.10;;
9465;SDS011;4771;48.726;9.006;2023-02-03T08:41:42;3.93;;;2.00;;
9465;SDS011;4771;48.726;9.006;2023-02-03T08:44:09;3.23;;;2.10;;
9465;SDS011;4771;48.726;9.006;2023-02-03T08:46:36;6.17;;;2.40;;
9465;SDS011;4771;48.726;9.006;2023-02-03T08:49:08;4.27;;;2.10;;
9465;SDS011;4771;48.726;9.006;2023-02-03T08:51:36;2.83;;;2.07;;
9465;SDS011;4771;48.726;9.006;2023-02-03T08:54:03;4.53;;;2.27;;
9465;SDS011;4771;48.726;9.006;2023-02-03T08:56:29;3.17;;;2.30;;
9465;SDS011;4771;48.726;9.006;2023-02-03T08:58:58;5.03;;;2.20;;
9465;SDS011;4771;48.726;9.006;2023-02-03T09:01:25;7.07;;;2.00;;
9465;SDS011;4771;48.726;9.006;2023-02-03T09:03:51;5.30;;;2.00;;
9465;SDS011;4771;48.726;9.006;2023-02-03T09:06:18;8.73;;;2.10;;
9465;SDS011;4771;48.726;9.006;2023-02-03T09:08:47;6.40;;;2.00;;
9465;SDS011;4771;48.726;9.006;2023-02-03T09:11:15;2.70;;;1.60;;
9465;SDS011;4771;48.726;9.006;2023-02-03T09:13:42;2.70;;;1.60;;
9465;SDS011;4771;48.726;9.006;2023-02-03T09:16:10;2.33;;;1.70;;
9465;SDS011;4771;48.726;9.006;2023-02-03T09:18:38;3.20;;;1.80;;
9465;SDS011;4771;48.726;9.006;2023-02-03T09:21:06;3.00;;;1.83;;
9465;SDS011;4771;48.726;9.006;2023-02-03T09:23:35;1.83;;;1.50;;
9465;SDS011;4771;48.726;9.006;2023-02-03T09:26:03;2.17;;;1.60;;
9465;SDS011;4771;48.726;9.006;2023-02-03T09:28:31;2.93;;;1.60;;
9465;SDS011;4771;48.726;9.006;2023-02-03T09:31:01;1.80;;;1.37;;
9465;SDS011;4771;48.726;9.006;2023-02-03T09:33:30;2.30;;;1.10;;
9465;SDS011;4771;48.726;9.006;2023-02-03T09:35:57;1.57;;;1.27;;
9465;SDS011;4771;48.726;9.006;2023-02-03T09:38:25;1.50;;;1.40;;
9465;SDS011;4771;48.726;9.006;2023-02-03T09:40:53;2.30;;;1.30;;
9465;SDS011;4771;48.726;9.006;2023-02-03T09:43:30;1.53;;;1.20;;
9465;SDS011;4771;48.726;9.006;2023-02-03T09:46:01;2.07;;;1.30;;
9465;SDS011;4771;48.726;9.006;2023-02-03T09:48:33;1.03;;;1.00;;
9465;SDS011;4771;48.726;9.006;2023-02-03T09:51:07;1.20;;;1.10;;
9465;SDS011;4771;48.726;9.006;2023-02-03T09:53:44;1.40;;;1.20;;
9465;SDS011;4771;48.726;9.006;2023-02-03T09:56:21;1.60;;;1.10;;
9465;SDS011;4771;48.726;9.006;2023-02-03T09:58:53;1.10;;;1.10;;
9465;SDS011;4771;48.726;9.006;2023-02-03T10:01:20;1.20;;;1.10;;
9465;SDS011;4771;48.726;9.006;2023-02-03T10:03:51;3.47;;;1.17;;
9465;SDS011;4771;48.726;9.006;2023-02-03T10:06:26;1.97;;;1.20;;
9465;SDS011;4771;48.726;9.006;2023-02-03T10:09:05;1.70;;;1.30;;
9465;SDS011;4771;48.726;9.006;2023-02-03T10:11:53;1.10;;;1.00;;
9465;SDS011;4771;48.726;9.006;2023-02-03T10:14:39;1.63;;;1.10;;
9465;SDS011;4771;48.726;9.006;2023-02-03T10:17:18;1.10;;;1.00;;
9465;SDS011;4771;48.726;9.006;2023-02-03T10:19:55;2.90;;;1.10;;
9465;SDS011;4771;48.726;9.006;2023-02-03T10:22:26;1.77;;;1.17;;
9465;SDS011;4771;48.726;9.006;2023-02-03T10:24:57;1.00;;;0.97;;
9465;SDS011;4771;48.726;9.006;2023-02-03T10:27:28;1.47;;;0.90;;
9465;SDS011;4771;48.726;9.006;2023-02-03T10:29:59;2.10;;;1.13;;
9465;SDS011;4771;48.726;9.006;2023-02-03T10:32:31;1.10;;;1.00;;
9465;SDS011;4771;48.726;9.006;2023-02-03T10:35:00;2.53;;;1.10;;
9465;SDS011;4771;48.726;9.006;2023-02-03T10:37:28;0.97;;;0.90;;
9465;SDS011;4771;48.726;9.006;2023-02-03T10:39:56;5.80;;;1.00;;
9465;SDS011;4771;48.726;9.006;2023-02-03T10:42:24;1.10;;;1.00;;
9465;SDS011;4771;48.726;9.006;2023-02-03T10:45:13;2.10;;;0.93;;
9465;SDS011;4771;48.726;9.006;2023-02-03T10:47:41;0.70;;;0.70;;
9465;SDS011;4771;48.726;9.006;2023-02-03T10:50:14;0.77;;;0.77;;
9465;SDS011;4771;48.726;9.006;2023-02-03T10:52:42;1.10;;;0.90;;
9465;SDS011;4771;48.726;9.006;2023-02-03T10:55:27;0.70;;;0.70;;
9465;SDS011;4771;48.726;9.006;2023-02-03T10:57:56;1.00;;;1.00;;
9465;SDS011;4771;48.726;9.006;2023-02-03T11:00:27;1.00;;;0.67;;
9465;SDS011;4771;48.726;9.006;2023-02-03T11:02:56;2.13;;;0.70;;
9465;SDS011;4771;48.726;9.006;2023-02-03T11:05:28;0.73;;;0.73;;
9465;SDS011;4771;48.726;9.006;2023-02-03T11:07:55;1.03;;;0.80;;
9465;SDS011;4771;48.726;9.006;2023-02-03T11:10:25;0.90;;;0.90;;
9465;SDS011;4771;48.726;9.006;2023-02-03T11:13:14;1.27;;;0.90;;
9465;SDS011;4771;48.726;9.006;2023-02-03T11:15:52;2.07;;;0.90;;
9465;SDS011;4771;48.726;9.006;2023-02-03T11:21:21;1.23;;;0.83;;
9465;SDS011;4771;48.726;9.006;2023-02-03T11:23:51;2.37;;;0.80;;
9465;SDS011;4771;48.726;9.006;2023-02-03T11:26:26;1.67;;;0.80;;
9465;SDS011;4771;48.726;9.006;2023-02-03T11:28:55;0.80;;;0.80;;
9465;SDS011;4771;48.726;9.006;2023-02-03T11:31:26;1.03;;;0.90;;
9465;SDS011;4771;48.726;9.006;2023-02-03T11:33:57;1.17;;;0.90;;
9465;SDS011;4771;48.726;9.006;2023-02-03T11:36:27;1.03;;;0.93;;
9465;SDS011;4771;48.726;9.006;2023-02-03T11:41:46;1.00;;;0.90;;
9465;SDS011;4771;48.726;9.006;2023-02-03T11:44:23;1.87;;;0.90;;
9465;SDS011;4771;48.726;9.006;2023-02-03T11:46:55;1.00;;;1.00;;
9465;SDS011;4771;48.726;9.006;2023-02-03T11:55:48;1.40;;;1.20;;
9465;SDS011;4771;48.726;9.006;2023-02-03T11:58:29;1.33;;;1.07;;
9465;SDS011;4771;48.726;9.006;2023-02-03T12:01:15;0.80;;;0.80;;
9465;SDS011;4771;48.726;9.006;2023-02-03T12:04:07;2.10;;;0.80;;
9465;SDS011;4771;48.726;9.006;2023-02-03T12:06:58;0.70;;;0.67;;
9465;SDS011;4771;48.726;9.006;2023-02-03T12:09:43;1.40;;;1.20;;
9465;SDS011;4771;48.726;9.006;2023-02-03T12:12:25;1.50;;;1.40;;
9465;SDS011;4771;48.726;9.006;2023-02-03T12:15:11;0.80;;;0.80;;
9465;SDS011;4771;48.726;9.006;2023-02-03T12:17:51;1.13;;;0.80;;
9465;SDS011;4771;48.726;9.006;2023-02-03T12:20:38;1.20;;;0.93;;
9465;SDS011;4771;48.726;9.006;2023-02-03T12:23:14;0.70;;;0.70;;
9465;SDS011;4771;48.726;9.006;2023-02-03T12:25:53;1.33;;;0.83;;
9465;SDS011;4771;48.726;9.006;2023-02-03T12:28:35;0.70;;;0.70;;
9465;SDS011;4771;48.726;9.006;2023-02-03T12:31:11;0.80;;;0.80;;
9465;SDS011;4771;48.726;9.006;2023-02-03T12:33:44;0.70;;;0.70;;
9465;SDS011;4771;48.726;9.006;2023-02-03T12:36:17;0.70;;;0.70;;
9465;SDS011;4771;48.726;9.006;2023-02-03T12:38:49;0.80;;;0.80;;
9465;SDS011;4771;48.726;9.006;2023-02-03T12:41:21;1.07;;;1.00;;
9465;SDS011;4771;48.726;9.006;2023-02-03T12:43:51;1.20;;;1.10;;
9465;SDS011;4771;48.726;9.006;2023-02-03T12:46:25;1.17;;;1.07;;
9465;SDS011;4771;48.726;9.006;2023-02-03T12:48:57;0.80;;;0.80;;
9465;SDS011;4771;48.726;9.006;2023-02-03T12:51:33;1.00;;;0.90;;
9465;SDS011;4771;48.726;9.006;2023-02-03T12:54:05;0.90;;;0.90;;
9465;SDS011;4771;48.726;9.006;2023-02-03T12:56:51;0.73;;;0.73;;
9465;SDS011;4771;48.726;9.006;2023-02-03T12:59:21;1.23;;;1.00;;
9465;SDS011;4771;48.726;9.006;2023-02-03T13:01:51;1.00;;;0.90;;
9465;SDS011;4771;48.726;9.006;2023-02-03T13:04:24;0.97;;;0.97;;
9465;SDS011;4771;48.726;9.006;2023-02-03T13:06:59;3.60;;;0.90;;
9465;SDS011;4771;48.726;9.006;2023-02-03T13:09:34;0.90;;;0.90;;
9465;SDS011;4771;48.726;9.006;2023-02-03T13:12:07;1.77;;;1.10;;
9465;SDS011;4771;48.726;9.006;2023-02-03T13:14:38;0.93;;;0.90;;
9465;SDS011;4771;48.726;9.006;2023-02-03T13:17:10;1.60;;;1.10;;
9465;SDS011;4771;48.726;9.006;2023-02-03T13:19:41;1.00;;;0.90;;
9465;SDS011;4771;48.726;9.006;2023-02-03T13:22:13;0.97;;;0.90;;
9465;SDS011;4771;48.726;9.006;2023-02-03T13:24:42;1.20;;;1.10;;
9465;SDS011;4771;48.726;9.006;2023-02-03T13:27:17;1.10;;;1.00;;
9465;SDS011;4771;48.726;9.006;2023-02-03T13:30:10;0.80;;;0.80;;
9465;SDS011;4771;48.726;9.006;2023-02-03T13:32:55;1.30;;;1.10;;
9465;SDS011;4771;48.726;9.006;2023-02-03T13:35:42;1.00;;;1.00;;
9465;SDS011;4771;48.726;9.006;2023-02-03T13:41:34;1.53;;;1.00;;
9465;SDS011;4771;48.726;9.006;2023-02-03T13:44:08;1.20;;;0.93;;
9465;SDS011;4771;48.726;9.006;2023-02-03T13:46:37;1.07;;;0.90;;
9465;SDS011;4771;48.726;9.006;2023-02-03T13:49:05;1.00;;;0.80;;
9465;SDS011;4771;48.726;9.006;2023-02-03T13:51:34;0.90;;;0.90;;
9465;SDS011;4771;48.726;9.006;2023-02-03T13:54:12;1.33;;;1.10;;
9465;SDS011;4771;48.726;9.006;2023-02-03T13:56:43;1.30;;;0.80;;
9465;SDS011;4771;48.726;9.006;2023-02-03T13:59:26;1.20;;;1.10;;
9465;SDS011;4771;48.726;9.006;2023-02-03T14:04:58;1.07;;;1.00;;
9465;SDS011;4771;48.726;9.006;2023-02-03T14:07:28;0.80;;;0.80;;
9465;SDS011;4771;48.726;9.006;2023-02-03T14:10:16;0.77;;;0.77;;
9465;SDS011;4771;48.726;9.006;2023-02-03T14:12:54;1.07;;;0.80;;
9465;SDS011;4771;48.726;9.006;2023-02-03T14:15:27;1.20;;;1.10;;
9465;SDS011;4771;48.726;9.006;2023-02-03T14:21:08;1.07;;;1.00;;
9465;SDS011;4771;48.726;9.006;2023-02-03T14:23:42;0.80;;;0.80;;
9465;SDS011;4771;48.726;9.006;2023-02-03T14:26:21;2.70;;;0.90;;
9465;SDS011;4771;48.726;9.006;2023-02-03T14:28:54;3.00;;;1.00;;
9465;SDS011;4771;48.726;9.006;2023-02-03T14:31:22;0.80;;;0.80;;
9465;SDS011;4771;48.726;9.006;2023-02-03T14:36:49;0.80;;;0.80;;
9465;SDS011;4771;48.726;9.006;2023-02-03T14:39:38;0.73;;;0.73;;
9465;SDS011;4771;48.726;9.006;2023-02-03T14:42:52;1.00;;;0.80;;
9465;SDS011;4771;48.726;9.006;2023-02-03T14:45:51;2.00;;;0.90;;
9465;SDS011;4771;48.726;9.006;2023-02-03T14:48:39;1.10;;;1.00;;
9465;SDS011;4771;48.726;9.006;2023-02-03T14:51:20;1.27;;;1.00;;
9465;SDS011;4771;48.726;9.006;2023-02-03T14:54:08;1.33;;;1.10;;
9465;SDS011;4771;48.726;9.006;2023-02-03T14:56:51;1.20;;;1.00;;
9465;SDS011;4771;48.726;9.006;2023-02-03T14:59:42;0.80;;;0.80;;
9465;SDS011;4771;48.726;9.006;2023-02-03T15:02:13;0.80;;;0.80;;
9465;SDS011;4771;48.726;9.006;2023-02-03T15:04:43;1.00;;;0.90;;
9465;SDS011;4771;48.726;9.006;2023-02-03T15:10:11;1.10;;;1.00;;
9465;SDS011;4771;48.726;9.006;2023-02-03T15:12:43;0.80;;;0.80;;
9465;SDS011;4771;48.726;9.006;2023-02-03T15:15:14;0.97;;;0.90;;
9465;SDS011;4771;48.726;9.006;2023-02-03T15:17:46;1.07;;;1.00;;
9465;SDS011;4771;48.726;9.006;2023-02-03T15:20:24;1.70;;;1.30;;
9465;SDS011;4771;48.726;9.006;2023-02-03T15:23:00;1.20;;;1.10;;
9465;SDS011;4771;48.726;9.006;2023-02-03T15:25:28;2.47;;;0.90;;
9465;SDS011;4771;48.726;9.006;2023-02-03T15:28:09;1.10;;;1.00;;
9465;SDS011;4771;48.726;9.006;2023-02-03T15:30:39;2.27;;;1.50;;
9465;SDS011;4771;48.726;9.006;2023-02-03T15:33:07;2.50;;;0.90;;
9465;SDS011;4771;48.726;9.006;2023-02-03T15:35:39;1.23;;;1.00;;
9465;SDS011;4771;48.726;9.006;2023-02-03T15:38:08;1.80;;;1.23;;
9465;SDS011;4771;48.726;9.006;2023-02-03T15:40:40;1.10;;;1.00;;
9465;SDS011;4771;48.726;9.006;2023-02-03T15:43:12;1.43;;;0.93;;
9465;SDS011;4771;48.726;9.006;2023-02-03T15:45:46;1.17;;;0.90;;
9465;SDS011;4771;48.726;9.006;2023-02-03T15:48:20;3.43;;;3.13;;
9465;SDS011;4771;48.726;9.006;2023-02-03T15:50:54;1.87;;;1.70;;
9465;SDS011;4771;48.726;9.006;2023-02-03T15:53:26;1.03;;;1.00;;
9465;SDS011;4771;48.726;9.006;2023-02-03T15:55:57;1.30;;;1.20;;
9465;SDS011;4771;48.726;9.006;2023-02-03T15:58:29;2.07;;;1.50;;
9465;SDS011;4771;48.726;9.006;2023-02-03T16:01:00;1.20;;;1.07;;
9465;SDS011;4771;48.726;9.006;2023-02-03T16:03:32;1.00;;;1.00;;
9465;SDS011;4771;48.726;9.006;2023-02-03T16:06:05;0.90;;;0.90;;
9465;SDS011;4771;48.726;9.006;2023-02-03T16:08:35;1.50;;;0.90;;
9465;SDS011;4771;48.726;9.006;2023-02-03T16:11:20;1.20;;;1.10;;
9465;SDS011;4771;48.726;9.006;2023-02-03T16:13:48;1.03;;;1.00;;